createdAt,value
2023-10-26T00:00:09.101Z,15.35
2023-10-26T00:02:39.199Z,16.33
2023-10-26T00:05:05.858Z,17.13
2023-10-26T00:07:32.482Z,16.58
2023-10-26T00:09:58.873Z,18.20
2023-10-26T00:12:25.434Z,16.58
2023-10-26T00:14:52.021Z,17.50
2023-10-26T00:17:18.566Z,16.52
2023-10-26T00:19:44.970Z,17.60
2023-10-26T00:22:11.356Z,16.75
2023-10-26T00:24:38.768Z,16.38
2023-10-26T00:27:05.568Z,16.65
2023-10-26T00:29:32.125Z,17.15
2023-10-26T00:31:58.535Z,16.92
2023-10-26T00:34:24.930Z,16.52
2023-10-26T00:36:51.438Z,17.30
2023-10-26T00:39:19.160Z,15.43
2023-10-26T00:41:45.837Z,16.75
2023-10-26T00:44:12.305Z,17.00
2023-10-26T00:46:38.716Z,16.70
2023-10-26T00:49:05.417Z,18.80
2023-10-26T00:51:33.327Z,18.23
2023-10-26T00:54:02.136Z,17.65
2023-10-26T00:56:28.600Z,17.70
2023-10-26T00:58:56.173Z,18.92
2023-10-26T01:01:22.597Z,18.25
2023-10-26T01:03:50.231Z,18.85
2023-10-26T01:06:16.691Z,18.52
2023-10-26T01:08:43.261Z,20.48
2023-10-26T01:11:12.782Z,19.00
2023-10-26T01:13:39.217Z,19.20
2023-10-26T01:16:08.814Z,18.58
2023-10-26T01:18:35.246Z,19.17
2023-10-26T01:21:01.821Z,21.00
2023-10-26T01:23:28.352Z,19.92
2023-10-26T01:25:55.997Z,19.48
2023-10-26T01:28:24.332Z,18.95
2023-10-26T01:30:51.267Z,20.25
2023-10-26T01:33:17.791Z,20.98
2023-10-26T01:35:47.034Z,19.67
2023-10-26T01:38:13.965Z,21.00
2023-10-26T01:40:40.769Z,20.42
2023-10-26T01:43:07.241Z,19.45
2023-10-26T01:45:34.706Z,20.58
2023-10-26T01:48:01.508Z,20.58
2023-10-26T01:50:28.100Z,19.10
2023-10-26T01:52:55.918Z,20.40
2023-10-26T01:55:23.263Z,20.15
2023-10-26T01:57:49.702Z,20.58
2023-10-26T02:00:16.365Z,20.75
2023-10-26T02:02:43.705Z,20.88
2023-10-26T02:05:10.370Z,19.88
2023-10-26T02:07:38.308Z,20.33
2023-10-26T02:10:04.935Z,19.55
2023-10-26T02:12:31.349Z,20.23
2023-10-26T02:14:57.841Z,20.48
2023-10-26T02:17:24.277Z,20.40
2023-10-26T02:19:50.831Z,19.88
2023-10-26T02:22:17.407Z,20.83
2023-10-26T02:24:44.022Z,20.13
2023-10-26T02:27:10.945Z,20.65
2023-10-26T02:29:37.465Z,21.13
2023-10-26T02:32:04.028Z,20.02
2023-10-26T02:34:31.514Z,20.35
2023-10-26T02:36:58.664Z,19.90
2023-10-26T02:39:26.057Z,20.52
2023-10-26T02:41:52.708Z,21.73
2023-10-26T02:44:19.248Z,21.75
2023-10-26T02:46:45.661Z,22.13
2023-10-26T02:49:12.227Z,21.27
2023-10-26T02:51:38.656Z,19.88
2023-10-26T02:54:05.140Z,21.70
2023-10-26T02:56:31.608Z,22.63
2023-10-26T02:58:58.009Z,22.05
2023-10-26T03:01:25.487Z,20.77
2023-10-26T03:03:52.679Z,22.60
2023-10-26T03:06:19.307Z,21.30
2023-10-26T03:08:45.824Z,21.27
2023-10-26T03:11:12.289Z,21.85
2023-10-26T03:13:38.699Z,22.17
2023-10-26T03:16:07.464Z,26.25
2023-10-26T03:18:33.928Z,25.77
2023-10-26T03:21:00.373Z,24.05
2023-10-26T03:23:26.806Z,26.10
2023-10-26T03:25:53.249Z,26.08
2023-10-26T03:28:19.732Z,25.65
2023-10-26T03:30:46.135Z,36.00
2023-10-26T03:33:12.979Z,32.17
2023-10-26T03:35:39.512Z,33.90
2023-10-26T03:38:05.933Z,45.00
2023-10-26T03:40:34.184Z,35.65
2023-10-26T03:43:00.707Z,35.97
2023-10-26T03:45:29.677Z,31.17
2023-10-26T03:47:56.405Z,37.38
2023-10-26T03:50:23.302Z,39.67
2023-10-26T03:52:49.680Z,37.50
2023-10-26T03:55:17.363Z,52.40
2023-10-26T03:57:45.746Z,38.13
2023-10-26T04:00:12.961Z,28.70
2023-10-26T04:02:40.422Z,32.45
2023-10-26T04:05:07.433Z,33.85
2023-10-26T04:07:34.687Z,40.28
2023-10-26T04:10:01.119Z,38.28
2023-10-26T04:12:28.043Z,43.67
2023-10-26T04:14:54.660Z,43.67
2023-10-26T04:17:23.215Z,42.72
2023-10-26T04:19:49.619Z,44.17
2023-10-26T04:22:16.127Z,36.17
2023-10-26T04:24:42.839Z,41.50
2023-10-26T04:27:09.435Z,33.17
2023-10-26T04:29:35.842Z,34.92
2023-10-26T04:32:02.473Z,41.75
2023-10-26T04:34:29.679Z,35.45
2023-10-26T04:36:57.501Z,38.80
2023-10-26T04:39:24.086Z,42.47
2023-10-26T04:41:50.733Z,49.35
2023-10-26T04:44:19.397Z,42.40
2023-10-26T04:46:45.816Z,33.15
2023-10-26T04:49:12.430Z,42.80
2023-10-26T04:51:39.241Z,35.28
2023-10-26T04:54:06.155Z,38.08
2023-10-26T04:56:32.685Z,40.30
2023-10-26T04:58:59.063Z,39.88
2023-10-26T05:01:25.464Z,45.72
2023-10-26T05:03:54.473Z,38.85
2023-10-26T05:06:21.047Z,33.97
2023-10-26T05:08:48.120Z,34.72
2023-10-26T05:11:15.736Z,32.30
2023-10-26T05:13:42.217Z,31.55
2023-10-26T05:16:08.704Z,40.33
2023-10-26T05:18:35.147Z,37.22
2023-10-26T05:21:01.537Z,43.17
2023-10-26T05:23:27.967Z,40.28
2023-10-26T05:25:55.300Z,32.63
2023-10-26T05:28:21.749Z,42.70
2023-10-26T05:30:48.148Z,38.60
2023-10-26T05:33:16.836Z,38.35
2023-10-26T05:35:45.250Z,45.17
2023-10-26T05:38:11.852Z,39.70
2023-10-26T05:40:38.289Z,36.47
2023-10-26T05:43:04.706Z,43.50
2023-10-26T05:45:38.236Z,37.15
2023-10-26T05:48:06.511Z,28.30
2023-10-26T05:50:33.023Z,34.25
2023-10-26T05:53:00.079Z,30.92
2023-10-26T05:55:26.529Z,27.10
2023-10-26T05:57:52.934Z,33.35
2023-10-26T06:00:19.407Z,31.77
2023-10-26T06:02:45.778Z,29.88
2023-10-26T06:05:12.242Z,34.22
2023-10-26T06:07:38.709Z,26.98
2023-10-26T06:10:06.923Z,29.38
2023-10-26T06:12:33.402Z,29.58
2023-10-26T06:14:59.989Z,27.23
2023-10-26T06:17:26.460Z,28.15
2023-10-26T06:19:52.971Z,29.67
2023-10-26T06:22:19.360Z,28.33
2023-10-26T06:24:45.928Z,30.10
2023-10-26T06:27:12.533Z,35.60
2023-10-26T06:29:39.042Z,24.02
2023-10-26T06:32:05.473Z,26.17
2023-10-26T06:34:32.301Z,26.13
2023-10-26T06:36:58.750Z,23.65
2023-10-26T06:39:27.383Z,26.15
2023-10-26T06:41:58.389Z,28.20
2023-10-26T06:44:25.119Z,24.98
2023-10-26T06:46:51.580Z,26.58
2023-10-26T06:49:29.700Z,28.00
2023-10-26T06:51:57.427Z,27.88
2023-10-26T06:54:24.257Z,23.77
2023-10-26T06:56:50.694Z,34.95
2023-10-26T06:59:17.566Z,28.55
2023-10-26T07:02:08.488Z,28.75
2023-10-26T07:04:33.200Z,23.55
2023-10-26T07:06:59.818Z,32.20
2023-10-26T07:09:26.339Z,25.85
2023-10-26T07:11:52.756Z,24.20
2023-10-26T07:14:19.321Z,25.08
2023-10-26T07:16:45.674Z,29.17
2023-10-26T07:19:12.131Z,27.35
2023-10-26T07:21:38.590Z,29.38
2023-10-26T07:24:05.300Z,23.02
2023-10-26T07:26:33.824Z,21.50
2023-10-26T07:29:00.276Z,28.55
2023-10-26T07:31:26.750Z,23.10
2023-10-26T07:33:53.967Z,19.67
2023-10-26T07:36:20.657Z,23.10
2023-10-26T07:39:46.308Z,22.80
2023-10-26T07:42:06.985Z,27.40
2023-10-26T07:44:23.612Z,19.42
2023-10-26T07:46:49.994Z,18.13
2023-10-26T07:49:16.377Z,21.17
2023-10-26T07:51:42.758Z,19.52
2023-10-26T07:54:10.787Z,22.10
2023-10-26T07:56:39.101Z,16.17
2023-10-26T07:59:05.534Z,21.00
2023-10-26T08:01:32.705Z,21.85
2023-10-26T08:03:59.188Z,19.08
2023-10-26T08:06:25.879Z,20.27
2023-10-26T08:08:53.747Z,18.30
2023-10-26T08:11:20.281Z,19.70
2023-10-26T08:13:47.485Z,18.35
2023-10-26T08:16:42.800Z,15.27
2023-10-26T08:19:01.870Z,16.35
2023-10-26T08:21:28.385Z,18.65
2023-10-26T08:23:54.729Z,15.45
2023-10-26T08:26:21.356Z,19.83
2023-10-26T08:28:47.867Z,20.83
2023-10-26T08:31:14.430Z,15.25
2023-10-26T08:33:40.905Z,16.48
2023-10-26T08:36:09.927Z,14.10
2023-10-26T08:38:36.899Z,15.68
2023-10-26T08:41:03.824Z,15.48
2023-10-26T08:43:30.578Z,15.38
2023-10-26T08:45:59.376Z,17.58
2023-10-26T08:48:26.692Z,15.68
2023-10-26T08:50:53.961Z,14.57
2023-10-26T08:53:20.746Z,15.68
2023-10-26T08:55:53.743Z,15.45
2023-10-26T08:58:21.374Z,13.65
2023-10-26T09:00:47.817Z,13.68
2023-10-26T09:03:14.430Z,13.85
2023-10-26T09:05:54.492Z,14.02
2023-10-26T09:08:21.642Z,13.60
2023-10-26T09:10:48.283Z,13.32
2023-10-26T09:13:22.939Z,12.88
2023-10-26T09:15:50.436Z,14.27
2023-10-26T09:18:17.068Z,13.10
2023-10-26T09:20:44.299Z,13.15
2023-10-26T09:23:27.359Z,13.63
2023-10-26T09:26:00.771Z,13.02
2023-10-26T09:28:28.278Z,12.25
2023-10-26T09:31:00.893Z,11.85
2023-10-26T09:33:27.768Z,13.90
2023-10-26T09:35:54.403Z,12.82
2023-10-26T09:38:40.319Z,12.77
2023-10-26T09:41:11.884Z,13.60
2023-10-26T09:43:41.108Z,14.15
2023-10-26T09:46:19.322Z,13.40
2023-10-26T09:48:48.095Z,13.48
2023-10-26T09:51:16.025Z,12.68
2023-10-26T09:53:44.890Z,13.23
2023-10-26T09:56:18.195Z,14.55
2023-10-26T09:58:44.597Z,13.60
2023-10-26T10:01:29.846Z,12.60
2023-10-26T10:03:56.309Z,14.43
2023-10-26T10:06:42.017Z,13.88
2023-10-26T10:09:08.472Z,14.00
2023-10-26T10:11:34.889Z,13.18
2023-10-26T10:14:01.340Z,13.43
2023-10-26T10:16:37.293Z,13.85
2023-10-26T10:19:24.369Z,14.38
2023-10-26T10:21:52.751Z,13.88
2023-10-26T10:24:38.736Z,12.65
2023-10-26T10:27:08.568Z,13.48
2023-10-26T10:29:35.097Z,13.73
2023-10-26T10:32:01.594Z,14.02
2023-10-26T10:34:42.481Z,13.23
2023-10-26T10:37:12.852Z,13.73
2023-10-26T10:39:40.092Z,14.27
2023-10-26T10:42:11.277Z,14.52
2023-10-26T10:44:39.567Z,14.68
2023-10-26T10:47:07.247Z,13.70
2023-10-26T10:49:33.694Z,13.20
2023-10-26T10:52:00.232Z,12.27
2023-10-26T10:54:40.737Z,13.05
2023-10-26T10:57:13.366Z,12.73
2023-10-26T10:59:39.828Z,14.13
2023-10-26T11:02:07.613Z,13.40
2023-10-26T11:04:39.353Z,12.77
2023-10-26T11:07:14.694Z,12.85
2023-10-26T11:09:41.276Z,12.63
2023-10-26T11:12:12.604Z,13.23
2023-10-26T11:14:51.756Z,13.40
2023-10-26T11:17:18.733Z,13.38
2023-10-26T11:19:46.073Z,13.60
2023-10-26T11:22:15.745Z,12.88
2023-10-26T11:24:42.922Z,12.45
2023-10-26T11:27:13.950Z,11.70
2023-10-26T11:29:44.392Z,12.68
2023-10-26T11:32:26.319Z,11.88
2023-10-26T11:35:12.886Z,12.50
2023-10-26T11:37:41.382Z,13.55
2023-10-26T11:40:08.757Z,12.38
2023-10-26T11:42:54.106Z,12.60
2023-10-26T11:45:21.417Z,12.30
2023-10-26T11:47:48.954Z,12.50
2023-10-26T11:50:28.311Z,12.73
2023-10-26T11:53:04.504Z,13.30
2023-10-26T11:55:32.940Z,13.55
2023-10-26T11:58:01.261Z,12.98
2023-10-26T12:00:28.685Z,12.60
2023-10-26T12:02:56.198Z,12.57
2023-10-26T12:05:24.540Z,12.35
2023-10-26T12:07:51.024Z,12.80
2023-10-26T12:10:19.004Z,12.77
2023-10-26T12:12:45.969Z,12.57
2023-10-26T12:15:12.528Z,13.02
2023-10-26T12:17:39.126Z,11.15
2023-10-26T12:20:05.825Z,11.80
2023-10-26T12:22:33.665Z,11.23
2023-10-26T12:25:05.269Z,11.60
2023-10-26T12:28:21.680Z,10.77
2023-10-26T12:30:20.349Z,10.38
2023-10-26T12:32:46.779Z,10.80
2023-10-26T12:35:13.311Z,10.70
2023-10-26T12:37:40.903Z,11.35
2023-10-26T12:40:09.244Z,9.98
2023-10-26T12:42:36.224Z,10.90
2023-10-26T12:45:02.849Z,9.93
2023-10-26T12:47:29.306Z,8.82
2023-10-26T12:49:55.842Z,9.32
2023-10-26T12:52:22.180Z,9.82
2023-10-26T12:54:48.569Z,8.75
2023-10-26T12:57:14.994Z,10.05
2023-10-26T12:59:41.363Z,10.35
2023-10-26T13:02:07.773Z,9.57
2023-10-26T13:04:34.914Z,9.45
2023-10-26T13:07:01.393Z,10.18
2023-10-26T13:09:29.422Z,10.00
2023-10-26T13:11:56.033Z,8.90
2023-10-26T13:14:22.449Z,10.13
2023-10-26T13:16:49.210Z,10.35
2023-10-26T13:19:24.059Z,9.35
2023-10-26T13:21:50.505Z,9.43
2023-10-26T13:24:16.904Z,8.38
2023-10-26T13:26:43.300Z,8.45
2023-10-26T13:29:09.648Z,8.93
2023-10-26T13:31:36.052Z,8.82
2023-10-26T13:34:03.604Z,8.68
2023-10-26T13:36:30.112Z,9.93
2023-10-26T13:38:57.523Z,8.88
2023-10-26T13:41:26.729Z,9.55
2023-10-26T13:43:54.502Z,9.60
2023-10-26T13:46:21.042Z,8.63
2023-10-26T13:48:48.472Z,10.13
2023-10-26T13:51:18.854Z,9.10
2023-10-26T13:53:45.603Z,9.57
2023-10-26T13:56:11.975Z,9.48
2023-10-26T13:58:40.756Z,9.13
2023-10-26T14:01:14.554Z,8.98
2023-10-26T14:03:41.618Z,9.55
2023-10-26T14:06:12.464Z,9.32
2023-10-26T14:08:40.402Z,9.70
2023-10-26T14:11:06.841Z,10.10
2023-10-26T14:13:33.465Z,10.20
2023-10-26T14:15:59.986Z,10.85
2023-10-26T14:18:27.813Z,9.20
2023-10-26T14:20:54.220Z,10.82
2023-10-26T14:23:21.908Z,11.18
2023-10-26T14:25:49.494Z,11.10
2023-10-26T14:28:15.918Z,10.68
2023-10-26T14:30:42.508Z,10.43
2023-10-26T14:33:10.174Z,10.48
2023-10-26T14:35:36.585Z,10.60
2023-10-26T14:38:03.223Z,11.57
2023-10-26T14:40:30.235Z,11.80
2023-10-26T14:42:57.099Z,11.48
2023-10-26T14:45:26.401Z,12.38
2023-10-26T14:47:53.208Z,10.88
2023-10-26T14:50:21.162Z,12.25
2023-10-26T14:52:47.883Z,12.23
2023-10-26T14:55:14.485Z,12.77
2023-10-26T14:57:40.974Z,8.23
2023-10-26T15:00:08.182Z,12.18
2023-10-26T15:02:34.866Z,11.32
2023-10-26T15:05:01.599Z,11.00
2023-10-26T15:07:28.044Z,10.48
2023-10-26T15:10:22.042Z,10.65
2023-10-26T15:12:42.522Z,11.18
2023-10-26T15:15:09.439Z,10.90
2023-10-26T15:17:36.928Z,10.18
2023-10-26T15:20:04.064Z,10.40
2023-10-26T15:22:30.489Z,9.82
2023-10-26T15:24:56.930Z,10.85
2023-10-26T15:27:23.452Z,9.45
2023-10-26T15:29:49.872Z,10.88
2023-10-26T15:32:19.118Z,9.85
2023-10-26T15:34:47.063Z,9.30
2023-10-26T15:37:13.904Z,9.10
2023-10-26T15:39:44.758Z,10.32
2023-10-26T15:42:13.518Z,9.77
2023-10-26T15:44:40.156Z,9.07
2023-10-26T15:47:06.618Z,9.80
2023-10-26T15:49:36.231Z,10.25
2023-10-26T15:52:03.534Z,10.13
2023-10-26T15:54:30.210Z,9.68
2023-10-26T15:56:57.311Z,10.10
2023-10-26T15:59:24.296Z,9.93
2023-10-26T16:01:50.838Z,9.65
2023-10-26T16:04:17.436Z,9.82
2023-10-26T16:06:45.327Z,9.70
2023-10-26T16:09:11.771Z,10.18
2023-10-26T16:11:39.375Z,10.65
2023-10-26T16:14:05.796Z,9.57
2023-10-26T16:16:32.738Z,9.98
2023-10-26T16:18:59.208Z,10.80
2023-10-26T16:21:27.842Z,10.05
2023-10-26T16:23:54.260Z,11.18
2023-10-26T16:26:20.635Z,10.18
2023-10-26T16:28:49.898Z,11.38
2023-10-26T16:31:17.022Z,10.68
2023-10-26T16:33:44.696Z,10.15
2023-10-26T16:36:11.429Z,10.85
2023-10-26T16:38:37.774Z,10.38
2023-10-26T16:41:04.687Z,11.02
2023-10-26T16:43:31.226Z,10.27
2023-10-26T16:45:57.883Z,10.70
2023-10-26T16:48:26.363Z,10.90
2023-10-26T16:50:53.208Z,12.60
2023-10-26T16:53:30.365Z,11.50
2023-10-26T16:56:01.689Z,11.65
2023-10-26T16:58:29.113Z,11.93
2023-10-26T17:00:59.255Z,12.35
2023-10-26T17:03:26.260Z,11.40
2023-10-26T17:05:52.786Z,11.68
2023-10-26T17:08:20.711Z,12.70
2023-10-26T17:10:49.300Z,10.55
2023-10-26T17:13:18.888Z,13.30
2023-10-26T17:15:46.549Z,13.77
2023-10-26T17:18:13.047Z,14.88
2023-10-26T17:20:39.527Z,13.75
2023-10-26T17:23:05.988Z,13.23
2023-10-26T17:25:36.102Z,13.88
2023-10-26T17:28:02.957Z,12.60
2023-10-26T17:30:29.985Z,14.23
2023-10-26T17:32:56.407Z,13.88
2023-10-26T17:35:22.868Z,14.35
2023-10-26T17:37:49.256Z,13.48
2023-10-26T17:40:15.789Z,13.65
2023-10-26T17:42:42.274Z,15.80
2023-10-26T17:45:09.949Z,14.07
2023-10-26T17:47:36.453Z,12.50
2023-10-26T17:50:05.215Z,13.32
2023-10-26T17:52:32.595Z,13.35
2023-10-26T17:55:00.462Z,12.77
2023-10-26T17:57:29.823Z,14.13
2023-10-26T17:59:56.269Z,14.13
2023-10-26T18:02:24.949Z,14.07
2023-10-26T18:04:51.408Z,13.43
2023-10-26T18:07:20.007Z,12.70
2023-10-26T18:09:46.720Z,12.93
2023-10-26T18:12:16.665Z,13.27
2023-10-26T18:14:43.524Z,12.85
2023-10-26T18:17:10.356Z,12.57
2023-10-26T18:19:36.724Z,12.90
2023-10-26T18:22:04.076Z,12.90
2023-10-26T18:24:34.898Z,12.10
2023-10-26T18:27:01.344Z,11.70
2023-10-26T18:29:28.278Z,12.45
2023-10-26T18:31:56.947Z,12.00
2023-10-26T18:34:23.449Z,15.48
2023-10-26T18:36:49.883Z,15.00
2023-10-26T18:39:16.543Z,16.20
2023-10-26T18:41:45.436Z,18.27
2023-10-26T18:44:12.051Z,15.90
2023-10-26T18:46:41.355Z,43.63
2023-10-26T18:49:10.835Z,55.50
2023-10-26T18:51:37.372Z,17.05
2023-10-26T18:54:04.571Z,16.63
2023-10-26T18:56:31.224Z,14.18
2023-10-26T18:58:57.748Z,14.65
2023-10-26T19:01:27.003Z,13.75
2023-10-26T19:06:24.887Z,13.15
2023-10-26T19:08:51.308Z,13.40
2023-10-26T19:11:17.926Z,13.68
2023-10-26T19:13:44.752Z,13.18
2023-10-26T19:16:11.740Z,13.40
2023-10-26T19:18:40.572Z,12.57
2023-10-26T19:21:07.352Z,13.70
2023-10-26T19:23:33.758Z,13.05
2023-10-26T19:26:02.187Z,13.63
2023-10-26T19:28:30.091Z,12.38
2023-10-26T19:30:56.579Z,12.75
2023-10-26T19:33:29.134Z,12.82
2023-10-26T19:35:55.590Z,14.30
2023-10-26T19:38:22.056Z,13.00
2023-10-26T19:40:48.486Z,13.07
2023-10-26T19:43:14.926Z,14.15
2023-10-26T19:45:43.938Z,13.73
2023-10-26T19:48:13.045Z,13.40
2023-10-26T19:50:41.051Z,13.63
2023-10-26T19:53:07.465Z,13.70
2023-10-26T19:55:33.902Z,14.32
2023-10-26T19:58:00.356Z,15.85
2023-10-26T20:00:29.952Z,14.93
2023-10-26T20:02:56.490Z,15.38
2023-10-26T20:05:23.018Z,14.05
2023-10-26T20:07:50.721Z,15.20
2023-10-26T20:10:17.224Z,15.45
2023-10-26T20:12:43.765Z,15.20
2023-10-26T20:15:12.289Z,16.08
2023-10-26T20:17:38.866Z,16.73
2023-10-26T20:20:10.526Z,16.60
2023-10-26T20:22:36.926Z,16.63
2023-10-26T20:25:05.226Z,17.23
2023-10-26T20:27:31.850Z,16.98
2023-10-26T20:29:58.265Z,17.00
2023-10-26T20:32:24.722Z,18.88
2023-10-26T20:34:53.318Z,19.75
2023-10-26T20:37:19.731Z,16.23
2023-10-26T20:39:46.655Z,16.75
2023-10-26T20:42:13.327Z,17.08
2023-10-26T20:44:39.802Z,18.13
2023-10-26T20:47:06.270Z,18.73
2023-10-26T20:49:32.756Z,17.00
2023-10-26T20:51:59.191Z,17.33
2023-10-26T20:54:25.583Z,17.63
2023-10-26T20:56:51.982Z,18.50
2023-10-26T20:59:18.440Z,18.67
2023-10-26T21:01:46.249Z,17.55
2023-10-26T21:04:13.018Z,18.15
2023-10-26T21:06:39.363Z,18.20
2023-10-26T21:09:05.790Z,18.33
2023-10-26T21:11:32.645Z,17.48
2023-10-26T21:13:59.110Z,18.52
2023-10-26T21:16:26.769Z,17.88
2023-10-26T21:18:53.839Z,19.58
2023-10-26T21:21:21.042Z,18.83
2023-10-26T21:23:50.846Z,19.38
2023-10-26T21:26:17.344Z,17.80
2023-10-26T21:28:43.933Z,19.42
2023-10-26T21:31:10.458Z,18.42
2023-10-26T21:33:38.510Z,19.83
2023-10-26T21:36:06.152Z,17.80
2023-10-26T21:38:32.543Z,18.38
2023-10-26T21:41:02.583Z,17.90
2023-10-26T21:43:30.883Z,17.77
2023-10-26T21:45:58.015Z,18.17
2023-10-26T21:48:29.108Z,17.90
2023-10-26T21:50:55.549Z,17.23
2023-10-26T21:53:22.003Z,19.42
2023-10-26T21:55:49.407Z,18.27
2023-10-26T21:58:15.886Z,18.13
2023-10-26T22:00:45.439Z,18.48
2023-10-26T22:03:12.298Z,18.95
2023-10-26T22:05:39.766Z,18.02
2023-10-26T22:08:06.199Z,18.90
2023-10-26T22:10:32.654Z,18.70
2023-10-26T22:12:59.078Z,19.13
2023-10-26T22:15:25.673Z,18.45
2023-10-26T22:17:53.623Z,19.08
2023-10-26T22:20:20.146Z,18.30
2023-10-26T22:22:46.541Z,20.63
2023-10-26T22:25:13.003Z,18.92
2023-10-26T22:27:39.440Z,18.77
2023-10-26T22:30:07.008Z,18.38
2023-10-26T22:32:33.820Z,19.92
2023-10-26T22:35:00.476Z,18.60
2023-10-26T22:37:27.005Z,19.48
2023-10-26T22:39:54.810Z,19.35
2023-10-26T22:42:22.311Z,18.75
2023-10-26T22:44:50.331Z,19.60
2023-10-26T22:47:16.801Z,17.95
2023-10-26T22:49:43.999Z,19.50
2023-10-26T22:52:10.790Z,18.60
2023-10-26T22:54:38.254Z,19.15
2023-10-26T22:57:04.964Z,21.70
2023-10-26T22:59:31.320Z,19.83
2023-10-26T23:01:57.890Z,21.60
2023-10-26T23:04:24.414Z,19.35
2023-10-26T23:06:51.295Z,19.48
2023-10-26T23:09:18.631Z,21.38
2023-10-26T23:11:45.137Z,20.27
2023-10-26T23:14:11.584Z,20.83
2023-10-26T23:16:38.636Z,20.80
2023-10-26T23:19:05.595Z,19.20
2023-10-26T23:21:33.254Z,18.15
2023-10-26T23:24:00.806Z,20.45
2023-10-26T23:26:27.171Z,19.23
2023-10-26T23:28:53.936Z,20.73
2023-10-26T23:31:20.405Z,20.65
2023-10-26T23:33:48.612Z,20.92
2023-10-26T23:36:16.901Z,21.48
2023-10-26T23:38:46.314Z,20.75
2023-10-26T23:41:13.264Z,21.27
2023-10-26T23:43:41.962Z,23.80
2023-10-26T23:46:09.038Z,23.08
2023-10-26T23:48:39.952Z,20.65
2023-10-26T23:51:06.807Z,22.05
2023-10-26T23:53:35.366Z,20.77
2023-10-26T23:56:04.420Z,22.63
2023-10-26T23:58:31.374Z,22.52
